sensor_id;sensor_type;location;lat;lon;timestamp;P1;durP1;ratioP1;P2;durP2;ratioP2
60060;SDS011;45933;51.336;12.612;2023-02-04T00:01:23;1.93;;;0.50;;
60060;SDS011;45933;51.336;12.612;2023-02-04T00:03:48;1.00;;;0.40;;
60060;SDS011;45933;51.336;12.612;2023-02-04T00:06:13;0.83;;;0.53;;
60060;SDS011;45933;51.336;12.612;2023-02-04T00:08:39;1.70;;;0.70;;
60060;SDS011;45933;51.336;12.612;2023-02-04T00:11:04;1.20;;;0.67;;
60060;SDS011;45933;51.336;12.612;2023-02-04T00:13:30;1.60;;;0.73;;
60060;SDS011;45933;51.336;12.612;2023-02-04T00:15:55;0.93;;;0.60;;
60060;SDS011;45933;51.336;12.612;2023-02-04T00:18:20;1.33;;;0.60;;
60060;SDS011;45933;51.336;12.612;2023-02-04T00:20:46;0.70;;;0.40;;
60060;SDS011;45933;51.336;12.612;2023-02-04T00:23:11;1.30;;;0.90;;
60060;SDS011;45933;51.336;12.612;2023-02-04T00:25:36;1.07;;;0.80;;
60060;SDS011;45933;51.336;12.612;2023-02-04T00:28:01;2.07;;;0.70;;
60060;SDS011;45933;51.336;12.612;2023-02-04T00:30:28;3.27;;;0.93;;
60060;SDS011;45933;51.336;12.612;2023-02-04T00:32:53;1.60;;;0.67;;
60060;SDS011;45933;51.336;12.612;2023-02-04T00:35:20;1.60;;;0.60;;
60060;SDS011;45933;51.336;12.612;2023-02-04T00:37:47;1.17;;;0.70;;
60060;SDS011;45933;51.336;12.612;2023-02-04T00:40:12;2.63;;;0.77;;
60060;SDS011;45933;51.336;12.612;2023-02-04T00:42:37;2.37;;;0.80;;
60060;SDS011;45933;51.336;12.612;2023-02-04T00:45:03;2.23;;;0.70;;
60060;SDS011;45933;51.336;12.612;2023-02-04T00:47:28;4.10;;;0.90;;
60060;SDS011;45933;51.336;12.612;2023-02-04T00:49:54;2.10;;;0.80;;
60060;SDS011;45933;51.336;12.612;2023-02-04T00:52:19;2.43;;;0.80;;
60060;SDS011;45933;51.336;12.612;2023-02-04T00:54:44;2.13;;;0.93;;
60060;SDS011;45933;51.336;12.612;2023-02-04T00:57:09;2.40;;;0.90;;
60060;SDS011;45933;51.336;12.612;2023-02-04T00:59:35;3.00;;;1.00;;
60060;SDS011;45933;51.336;12.612;2023-02-04T01:02:00;2.20;;;0.70;;
60060;SDS011;45933;51.336;12.612;2023-02-04T01:04:25;1.93;;;0.70;;
60060;SDS011;45933;51.336;12.612;2023-02-04T01:06:52;1.73;;;0.80;;
60060;SDS011;45933;51.336;12.612;2023-02-04T01:09:18;2.63;;;0.97;;
60060;SDS011;45933;51.336;12.612;2023-02-04T01:11:43;1.57;;;0.70;;
60060;SDS011;45933;51.336;12.612;2023-02-04T01:14:08;3.90;;;0.90;;
60060;SDS011;45933;51.336;12.612;2023-02-04T01:16:34;1.47;;;0.90;;
60060;SDS011;45933;51.336;12.612;2023-02-04T01:18:59;1.83;;;0.80;;
60060;SDS011;45933;51.336;12.612;2023-02-04T01:21:24;2.47;;;0.80;;
60060;SDS011;45933;51.336;12.612;2023-02-04T01:23:50;3.30;;;0.97;;
60060;SDS011;45933;51.336;12.612;2023-02-04T01:26:16;2.17;;;1.10;;
60060;SDS011;45933;51.336;12.612;2023-02-04T01:28:42;2.27;;;0.80;;
60060;SDS011;45933;51.336;12.612;2023-02-04T01:31:08;2.90;;;0.80;;
60060;SDS011;45933;51.336;12.612;2023-02-04T01:33:33;1.10;;;0.80;;
60060;SDS011;45933;51.336;12.612;2023-02-04T01:35:58;2.17;;;1.00;;
60060;SDS011;45933;51.336;12.612;2023-02-04T01:38:24;1.70;;;0.97;;
60060;SDS011;45933;51.336;12.612;2023-02-04T01:40:49;2.10;;;0.90;;
60060;SDS011;45933;51.336;12.612;2023-02-04T01:43:15;2.67;;;0.80;;
60060;SDS011;45933;51.336;12.612;2023-02-04T01:45:42;1.90;;;0.67;;
60060;SDS011;45933;51.336;12.612;2023-02-04T01:48:11;2.77;;;0.70;;
60060;SDS011;45933;51.336;12.612;2023-02-04T01:50:38;3.43;;;0.80;;
60060;SDS011;45933;51.336;12.612;2023-02-04T01:53:03;1.00;;;0.70;;
60060;SDS011;45933;51.336;12.612;2023-02-04T01:55:30;2.27;;;0.77;;
60060;SDS011;45933;51.336;12.612;2023-02-04T01:57:57;4.00;;;0.90;;
60060;SDS011;45933;51.336;12.612;2023-02-04T02:00:31;1.00;;;0.80;;
60060;SDS011;45933;51.336;12.612;2023-02-04T02:02:57;1.77;;;0.90;;
60060;SDS011;45933;51.336;12.612;2023-02-04T02:05:28;1.00;;;0.70;;
60060;SDS011;45933;51.336;12.612;2023-02-04T02:08:00;1.70;;;0.90;;
60060;SDS011;45933;51.336;12.612;2023-02-04T02:10:28;1.80;;;1.00;;
60060;SDS011;45933;51.336;12.612;2023-02-04T02:12:54;0.70;;;0.67;;
60060;SDS011;45933;51.336;12.612;2023-02-04T02:15:20;2.57;;;1.00;;
60060;SDS011;45933;51.336;12.612;2023-02-04T02:17:45;2.53;;;0.93;;
60060;SDS011;45933;51.336;12.612;2023-02-04T02:20:13;1.70;;;0.80;;
60060;SDS011;45933;51.336;12.612;2023-02-04T02:25:39;1.63;;;0.90;;
60060;SDS011;45933;51.336;12.612;2023-02-04T02:28:07;3.23;;;1.00;;
60060;SDS011;45933;51.336;12.612;2023-02-04T02:30:37;1.27;;;1.00;;
60060;SDS011;45933;51.336;12.612;2023-02-04T02:33:03;1.00;;;0.80;;
60060;SDS011;45933;51.336;12.612;2023-02-04T02:35:30;1.10;;;0.80;;
60060;SDS011;45933;51.336;12.612;2023-02-04T02:37:55;2.00;;;0.93;;
60060;SDS011;45933;51.336;12.612;2023-02-04T02:40:21;2.97;;;1.37;;
60060;SDS011;45933;51.336;12.612;2023-02-04T02:42:47;1.47;;;0.87;;
60060;SDS011;45933;51.336;12.612;2023-02-04T02:45:19;2.03;;;1.10;;
60060;SDS011;45933;51.336;12.612;2023-02-04T02:47:48;3.07;;;1.20;;
60060;SDS011;45933;51.336;12.612;2023-02-04T02:50:15;1.67;;;0.90;;
60060;SDS011;45933;51.336;12.612;2023-02-04T02:52:41;2.83;;;1.00;;
60060;SDS011;45933;51.336;12.612;2023-02-04T02:55:11;1.93;;;1.00;;
60060;SDS011;45933;51.336;12.612;2023-02-04T02:57:39;1.40;;;1.07;;
60060;SDS011;45933;51.336;12.612;2023-02-04T03:00:15;2.43;;;0.90;;
60060;SDS011;45933;51.336;12.612;2023-02-04T03:02:59;0.90;;;0.70;;
60060;SDS011;45933;51.336;12.612;2023-02-04T03:05:29;3.33;;;0.83;;
60060;SDS011;45933;51.336;12.612;2023-02-04T03:07:58;1.90;;;1.07;;
60060;SDS011;45933;51.336;12.612;2023-02-04T03:10:23;1.17;;;0.80;;
60060;SDS011;45933;51.336;12.612;2023-02-04T03:12:49;1.23;;;0.90;;
60060;SDS011;45933;51.336;12.612;2023-02-04T03:15:14;1.53;;;0.80;;
60060;SDS011;45933;51.336;12.612;2023-02-04T03:17:40;1.90;;;0.80;;
60060;SDS011;45933;51.336;12.612;2023-02-04T03:20:06;1.10;;;1.00;;
60060;SDS011;45933;51.336;12.612;2023-02-04T03:22:33;2.43;;;1.00;;
60060;SDS011;45933;51.336;12.612;2023-02-04T03:24:59;2.70;;;0.90;;
60060;SDS011;45933;51.336;12.612;2023-02-04T03:27:24;1.47;;;0.80;;
60060;SDS011;45933;51.336;12.612;2023-02-04T03:29:49;1.90;;;1.00;;
60060;SDS011;45933;51.336;12.612;2023-02-04T03:32:15;1.83;;;0.93;;
60060;SDS011;45933;51.336;12.612;2023-02-04T03:34:41;1.40;;;0.67;;
60060;SDS011;45933;51.336;12.612;2023-02-04T03:37:06;1.20;;;1.03;;
60060;SDS011;45933;51.336;12.612;2023-02-04T03:39:32;0.83;;;0.70;;
60060;SDS011;45933;51.336;12.612;2023-02-04T03:41:57;2.30;;;0.80;;
60060;SDS011;45933;51.336;12.612;2023-02-04T03:44:22;1.00;;;0.70;;
60060;SDS011;45933;51.336;12.612;2023-02-04T03:46:50;1.70;;;0.87;;
60060;SDS011;45933;51.336;12.612;2023-02-04T03:49:20;1.23;;;0.90;;
60060;SDS011;45933;51.336;12.612;2023-02-04T03:51:46;1.20;;;0.70;;
60060;SDS011;45933;51.336;12.612;2023-02-04T03:54:11;2.30;;;0.80;;
60060;SDS011;45933;51.336;12.612;2023-02-04T03:56:37;1.27;;;0.80;;
60060;SDS011;45933;51.336;12.612;2023-02-04T03:59:02;1.10;;;0.70;;
60060;SDS011;45933;51.336;12.612;2023-02-04T04:01:27;3.07;;;0.90;;
60060;SDS011;45933;51.336;12.612;2023-02-04T04:03:53;2.40;;;0.80;;
60060;SDS011;45933;51.336;12.612;2023-02-04T04:06:18;1.20;;;1.00;;
60060;SDS011;45933;51.336;12.612;2023-02-04T04:08:43;1.37;;;0.90;;
60060;SDS011;45933;51.336;12.612;2023-02-04T04:11:08;1.00;;;0.90;;
60060;SDS011;45933;51.336;12.612;2023-02-04T04:13:34;0.80;;;0.80;;
60060;SDS011;45933;51.336;12.612;2023-02-04T04:15:59;2.73;;;0.80;;
60060;SDS011;45933;51.336;12.612;2023-02-04T04:18:24;1.40;;;0.87;;
60060;SDS011;45933;51.336;12.612;2023-02-04T04:20:50;0.90;;;0.70;;
60060;SDS011;45933;51.336;12.612;2023-02-04T04:23:15;0.93;;;0.80;;
60060;SDS011;45933;51.336;12.612;2023-02-04T04:25:40;1.87;;;0.60;;
60060;SDS011;45933;51.336;12.612;2023-02-04T04:28:06;0.77;;;0.67;;
60060;SDS011;45933;51.336;12.612;2023-02-04T04:30:31;3.00;;;0.80;;
60060;SDS011;45933;51.336;12.612;2023-02-04T04:32:56;1.73;;;0.80;;
60060;SDS011;45933;51.336;12.612;2023-02-04T04:35:22;2.83;;;0.90;;
60060;SDS011;45933;51.336;12.612;2023-02-04T04:37:47;1.63;;;0.90;;
60060;SDS011;45933;51.336;12.612;2023-02-04T04:40:12;1.73;;;1.00;;
60060;SDS011;45933;51.336;12.612;2023-02-04T04:42:38;1.40;;;1.00;;
60060;SDS011;45933;51.336;12.612;2023-02-04T04:45:07;2.17;;;0.90;;
60060;SDS011;45933;51.336;12.612;2023-02-04T04:47:33;1.60;;;0.87;;
60060;SDS011;45933;51.336;12.612;2023-02-04T04:49:58;1.07;;;0.80;;
60060;SDS011;45933;51.336;12.612;2023-02-04T04:52:23;1.67;;;0.80;;
60060;SDS011;45933;51.336;12.612;2023-02-04T04:54:49;2.03;;;1.00;;
60060;SDS011;45933;51.336;12.612;2023-02-04T04:57:14;4.07;;;1.10;;
60060;SDS011;45933;51.336;12.612;2023-02-04T04:59:39;2.97;;;1.03;;
60060;SDS011;45933;51.336;12.612;2023-02-04T05:02:05;0.83;;;0.80;;
60060;SDS011;45933;51.336;12.612;2023-02-04T05:04:30;2.40;;;1.03;;
60060;SDS011;45933;51.336;12.612;2023-02-04T05:06:55;1.07;;;0.70;;
60060;SDS011;45933;51.336;12.612;2023-02-04T05:09:20;1.80;;;0.80;;
60060;SDS011;45933;51.336;12.612;2023-02-04T05:11:46;1.47;;;0.80;;
60060;SDS011;45933;51.336;12.612;2023-02-04T05:14:11;1.53;;;0.80;;
60060;SDS011;45933;51.336;12.612;2023-02-04T05:16:37;1.10;;;0.73;;
60060;SDS011;45933;51.336;12.612;2023-02-04T05:19:02;2.03;;;1.07;;
60060;SDS011;45933;51.336;12.612;2023-02-04T05:21:27;1.00;;;0.80;;
60060;SDS011;45933;51.336;12.612;2023-02-04T05:23:53;2.47;;;0.97;;
60060;SDS011;45933;51.336;12.612;2023-02-04T05:26:18;1.57;;;0.80;;
60060;SDS011;45933;51.336;12.612;2023-02-04T05:28:43;1.73;;;0.63;;
60060;SDS011;45933;51.336;12.612;2023-02-04T05:31:09;1.30;;;0.80;;
60060;SDS011;45933;51.336;12.612;2023-02-04T05:33:34;1.23;;;0.80;;
60060;SDS011;45933;51.336;12.612;2023-02-04T05:35:59;1.63;;;0.90;;
60060;SDS011;45933;51.336;12.612;2023-02-04T05:38:24;1.47;;;0.90;;
60060;SDS011;45933;51.336;12.612;2023-02-04T05:40:50;0.90;;;0.80;;
60060;SDS011;45933;51.336;12.612;2023-02-04T05:43:15;1.43;;;0.80;;
60060;SDS011;45933;51.336;12.612;2023-02-04T05:45:40;2.43;;;0.90;;
60060;SDS011;45933;51.336;12.612;2023-02-04T05:48:06;1.87;;;0.90;;
60060;SDS011;45933;51.336;12.612;2023-02-04T05:50:31;1.53;;;1.00;;
60060;SDS011;45933;51.336;12.612;2023-02-04T05:52:56;1.47;;;1.00;;
60060;SDS011;45933;51.336;12.612;2023-02-04T05:55:21;3.60;;;1.30;;
60060;SDS011;45933;51.336;12.612;2023-02-04T05:57:47;2.97;;;0.97;;
60060;SDS011;45933;51.336;12.612;2023-02-04T06:00:12;1.67;;;0.90;;
60060;SDS011;45933;51.336;12.612;2023-02-04T06:02:38;1.93;;;1.07;;
60060;SDS011;45933;51.336;12.612;2023-02-04T06:05:03;2.50;;;1.03;;
60060;SDS011;45933;51.336;12.612;2023-02-04T06:07:29;4.23;;;2.03;;
60060;SDS011;45933;51.336;12.612;2023-02-04T06:09:54;5.03;;;2.00;;
60060;SDS011;45933;51.336;12.612;2023-02-04T06:12:19;2.67;;;1.60;;
60060;SDS011;45933;51.336;12.612;2023-02-04T06:14:45;2.23;;;1.57;;
60060;SDS011;45933;51.336;12.612;2023-02-04T06:17:10;2.43;;;1.30;;
60060;SDS011;45933;51.336;12.612;2023-02-04T06:19:36;1.87;;;1.00;;
60060;SDS011;45933;51.336;12.612;2023-02-04T06:22:01;1.13;;;0.90;;
60060;SDS011;45933;51.336;12.612;2023-02-04T06:24:26;2.80;;;1.03;;
60060;SDS011;45933;51.336;12.612;2023-02-04T06:26:52;1.47;;;0.97;;
60060;SDS011;45933;51.336;12.612;2023-02-04T06:29:17;2.20;;;1.30;;
60060;SDS011;45933;51.336;12.612;2023-02-04T06:31:42;2.13;;;1.00;;
60060;SDS011;45933;51.336;12.612;2023-02-04T06:34:08;1.97;;;0.93;;
60060;SDS011;45933;51.336;12.612;2023-02-04T06:36:34;3.47;;;1.43;;
60060;SDS011;45933;51.336;12.612;2023-02-04T06:38:59;1.00;;;0.70;;
60060;SDS011;45933;51.336;12.612;2023-02-04T06:41:24;2.47;;;1.00;;
60060;SDS011;45933;51.336;12.612;2023-02-04T06:43:50;2.97;;;1.30;;
60060;SDS011;45933;51.336;12.612;2023-02-04T06:46:15;3.20;;;1.33;;
60060;SDS011;45933;51.336;12.612;2023-02-04T06:48:40;1.80;;;1.07;;
60060;SDS011;45933;51.336;12.612;2023-02-04T06:51:06;4.33;;;1.10;;
60060;SDS011;45933;51.336;12.612;2023-02-04T06:53:31;2.13;;;0.80;;
60060;SDS011;45933;51.336;12.612;2023-02-04T06:55:56;2.47;;;1.00;;
60060;SDS011;45933;51.336;12.612;2023-02-04T06:58:22;1.73;;;0.80;;
60060;SDS011;45933;51.336;12.612;2023-02-04T07:00:47;1.50;;;0.93;;
60060;SDS011;45933;51.336;12.612;2023-02-04T07:03:12;2.90;;;1.40;;
60060;SDS011;45933;51.336;12.612;2023-02-04T07:05:38;1.93;;;1.20;;
60060;SDS011;45933;51.336;12.612;2023-02-04T07:08:03;3.37;;;1.10;;
60060;SDS011;45933;51.336;12.612;2023-02-04T07:10:29;2.40;;;1.30;;
60060;SDS011;45933;51.336;12.612;2023-02-04T07:12:54;1.70;;;0.93;;
60060;SDS011;45933;51.336;12.612;2023-02-04T07:15:19;3.47;;;1.13;;
60060;SDS011;45933;51.336;12.612;2023-02-04T07:17:45;2.40;;;1.10;;
60060;SDS011;45933;51.336;12.612;2023-02-04T07:20:10;2.80;;;1.03;;
60060;SDS011;45933;51.336;12.612;2023-02-04T07:22:36;2.43;;;0.87;;
60060;SDS011;45933;51.336;12.612;2023-02-04T07:25:01;3.00;;;1.17;;
60060;SDS011;45933;51.336;12.612;2023-02-04T07:27:27;2.03;;;1.40;;
60060;SDS011;45933;51.336;12.612;2023-02-04T07:29:53;4.17;;;1.87;;
60060;SDS011;45933;51.336;12.612;2023-02-04T07:32:18;5.03;;;1.60;;
60060;SDS011;45933;51.336;12.612;2023-02-04T07:34:43;3.37;;;1.40;;
60060;SDS011;45933;51.336;12.612;2023-02-04T07:37:09;3.03;;;1.40;;
60060;SDS011;45933;51.336;12.612;2023-02-04T07:39:34;2.93;;;1.23;;
60060;SDS011;45933;51.336;12.612;2023-02-04T07:41:59;2.07;;;1.13;;
60060;SDS011;45933;51.336;12.612;2023-02-04T07:44:24;2.13;;;1.20;;
60060;SDS011;45933;51.336;12.612;2023-02-04T07:46:50;3.80;;;0.97;;
60060;SDS011;45933;51.336;12.612;2023-02-04T07:49:15;3.03;;;1.30;;
60060;SDS011;45933;51.336;12.612;2023-02-04T07:51:40;2.90;;;1.47;;
60060;SDS011;45933;51.336;12.612;2023-02-04T07:54:06;3.00;;;1.17;;
60060;SDS011;45933;51.336;12.612;2023-02-04T07:56:31;4.80;;;2.00;;
60060;SDS011;45933;51.336;12.612;2023-02-04T07:58:56;2.83;;;1.20;;
60060;SDS011;45933;51.336;12.612;2023-02-04T08:01:22;3.37;;;1.20;;
60060;SDS011;45933;51.336;12.612;2023-02-04T08:03:47;1.70;;;1.10;;
60060;SDS011;45933;51.336;12.612;2023-02-04T08:06:12;2.90;;;1.00;;
60060;SDS011;45933;51.336;12.612;2023-02-04T08:08:38;2.30;;;1.20;;
60060;SDS011;45933;51.336;12.612;2023-02-04T08:11:03;3.27;;;1.43;;
60060;SDS011;45933;51.336;12.612;2023-02-04T08:13:28;2.60;;;1.30;;
60060;SDS011;45933;51.336;12.612;2023-02-04T08:15:54;4.97;;;1.30;;
60060;SDS011;45933;51.336;12.612;2023-02-04T08:18:19;3.43;;;1.40;;
60060;SDS011;45933;51.336;12.612;2023-02-04T08:20:45;5.40;;;1.53;;
60060;SDS011;45933;51.336;12.612;2023-02-04T08:23:10;3.50;;;1.33;;
60060;SDS011;45933;51.336;12.612;2023-02-04T08:25:35;2.70;;;1.10;;
60060;SDS011;45933;51.336;12.612;2023-02-04T08:28:01;3.93;;;1.70;;
60060;SDS011;45933;51.336;12.612;2023-02-04T08:30:26;3.77;;;1.77;;
60060;SDS011;45933;51.336;12.612;2023-02-04T08:32:51;4.20;;;1.70;;
60060;SDS011;45933;51.336;12.612;2023-02-04T08:35:17;3.22;;;2.15;;
60060;SDS011;45933;51.336;12.612;2023-02-04T08:37:42;3.90;;;1.52;;
60060;SDS011;45933;51.336;12.612;2023-02-04T08:40:08;2.78;;;1.10;;
60060;SDS011;45933;51.336;12.612;2023-02-04T08:42:34;4.00;;;1.20;;
60060;SDS011;45933;51.336;12.612;2023-02-04T08:44:59;2.88;;;1.55;;
60060;SDS011;45933;51.336;12.612;2023-02-04T08:47:25;2.95;;;1.15;;
60060;SDS011;45933;51.336;12.612;2023-02-04T08:49:50;2.90;;;1.40;;
60060;SDS011;45933;51.336;12.612;2023-02-04T08:52:16;2.70;;;1.33;;
60060;SDS011;45933;51.336;12.612;2023-02-04T08:54:41;3.58;;;2.33;;
60060;SDS011;45933;51.336;12.612;2023-02-04T08:57:07;5.40;;;1.63;;
60060;SDS011;45933;51.336;12.612;2023-02-04T08:59:32;2.67;;;1.90;;
60060;SDS011;45933;51.336;12.612;2023-02-04T09:01:57;2.63;;;1.60;;
60060;SDS011;45933;51.336;12.612;2023-02-04T09:04:23;2.73;;;1.60;;
60060;SDS011;45933;51.336;12.612;2023-02-04T09:06:49;3.43;;;1.90;;
60060;SDS011;45933;51.336;12.612;2023-02-04T09:09:15;3.20;;;1.43;;
60060;SDS011;45933;51.336;12.612;2023-02-04T09:11:41;2.27;;;1.53;;
60060;SDS011;45933;51.336;12.612;2023-02-04T09:14:06;3.27;;;1.47;;
60060;SDS011;45933;51.336;12.612;2023-02-04T09:16:32;3.80;;;1.48;;
60060;SDS011;45933;51.336;12.612;2023-02-04T09:18:57;3.25;;;1.35;;
60060;SDS011;45933;51.336;12.612;2023-02-04T09:21:23;2.70;;;1.27;;
60060;SDS011;45933;51.336;12.612;2023-02-04T09:23:49;1.52;;;1.30;;
60060;SDS011;45933;51.336;12.612;2023-02-04T09:26:15;3.97;;;1.00;;
60060;SDS011;45933;51.336;12.612;2023-02-04T09:28:40;1.48;;;1.00;;
60060;SDS011;45933;51.336;12.612;2023-02-04T09:31:05;3.17;;;0.93;;
60060;SDS011;45933;51.336;12.612;2023-02-04T09:33:31;3.08;;;0.90;;
60060;SDS011;45933;51.336;12.612;2023-02-04T09:35:57;1.67;;;1.00;;
60060;SDS011;45933;51.336;12.612;2023-02-04T09:38:23;2.13;;;1.00;;
60060;SDS011;45933;51.336;12.612;2023-02-04T09:40:52;2.75;;;1.20;;
60060;SDS011;45933;51.336;12.612;2023-02-04T09:43:24;1.95;;;1.10;;
60060;SDS011;45933;51.336;12.612;2023-02-04T09:45:51;2.35;;;1.05;;
60060;SDS011;45933;51.336;12.612;2023-02-04T09:48:18;1.40;;;0.93;;
60060;SDS011;45933;51.336;12.612;2023-02-04T09:50:45;2.83;;;1.17;;
60060;SDS011;45933;51.336;12.612;2023-02-04T09:53:15;1.90;;;1.00;;
60060;SDS011;45933;51.336;12.612;2023-02-04T09:55:45;3.42;;;1.23;;
60060;SDS011;45933;51.336;12.612;2023-02-04T09:58:18;2.00;;;1.17;;
60060;SDS011;45933;51.336;12.612;2023-02-04T10:00:47;1.92;;;1.10;;
60060;SDS011;45933;51.336;12.612;2023-02-04T10:03:29;3.47;;;1.23;;
60060;SDS011;45933;51.336;12.612;2023-02-04T10:05:55;2.63;;;1.15;;
60060;SDS011;45933;51.336;12.612;2023-02-04T10:08:23;2.35;;;1.30;;
60060;SDS011;45933;51.336;12.612;2023-02-04T10:10:53;2.28;;;1.38;;
60060;SDS011;45933;51.336;12.612;2023-02-04T10:13:19;3.20;;;1.10;;
60060;SDS011;45933;51.336;12.612;2023-02-04T10:15:46;1.70;;;1.05;;
60060;SDS011;45933;51.336;12.612;2023-02-04T10:18:31;3.42;;;1.38;;
60060;SDS011;45933;51.336;12.612;2023-02-04T10:21:00;2.78;;;1.33;;
60060;SDS011;45933;51.336;12.612;2023-02-04T10:23:37;1.92;;;1.20;;
60060;SDS011;45933;51.336;12.612;2023-02-04T10:26:03;4.28;;;1.42;;
60060;SDS011;45933;51.336;12.612;2023-02-04T10:28:32;2.92;;;1.25;;
60060;SDS011;45933;51.336;12.612;2023-02-04T10:30:58;3.25;;;1.10;;
60060;SDS011;45933;51.336;12.612;2023-02-04T10:33:24;3.10;;;1.30;;
60060;SDS011;45933;51.336;12.612;2023-02-04T10:35:50;4.57;;;1.20;;
60060;SDS011;45933;51.336;12.612;2023-02-04T10:38:17;1.52;;;1.00;;
60060;SDS011;45933;51.336;12.612;2023-02-04T10:40:43;2.30;;;1.23;;
60060;SDS011;45933;51.336;12.612;2023-02-04T10:43:31;2.15;;;0.98;;
60060;SDS011;45933;51.336;12.612;2023-02-04T10:46:01;2.03;;;1.45;;
60060;SDS011;45933;51.336;12.612;2023-02-04T10:48:27;2.50;;;1.17;;
60060;SDS011;45933;51.336;12.612;2023-02-04T10:50:56;1.88;;;1.23;;
60060;SDS011;45933;51.336;12.612;2023-02-04T10:53:23;3.35;;;1.10;;
60060;SDS011;45933;51.336;12.612;2023-02-04T10:56:13;3.83;;;1.65;;
60060;SDS011;45933;51.336;12.612;2023-02-04T10:58:41;2.47;;;1.17;;
60060;SDS011;45933;51.336;12.612;2023-02-04T11:01:08;2.55;;;1.33;;
60060;SDS011;45933;51.336;12.612;2023-02-04T11:03:35;2.28;;;1.40;;
60060;SDS011;45933;51.336;12.612;2023-02-04T11:06:04;3.30;;;1.00;;
60060;SDS011;45933;51.336;12.612;2023-02-04T11:08:35;1.85;;;1.20;;
60060;SDS011;45933;51.336;12.612;2023-02-04T11:11:05;6.53;;;1.40;;
60060;SDS011;45933;51.336;12.612;2023-02-04T11:13:40;2.30;;;0.95;;
60060;SDS011;45933;51.336;12.612;2023-02-04T11:16:10;3.75;;;1.33;;
60060;SDS011;45933;51.336;12.612;2023-02-04T11:18:49;5.35;;;1.30;;
60060;SDS011;45933;51.336;12.612;2023-02-04T11:29:32;3.33;;;1.17;;
60060;SDS011;45933;51.336;12.612;2023-02-04T11:34:44;3.22;;;1.20;;
60060;SDS011;45933;51.336;12.612;2023-02-04T11:37:13;3.38;;;1.00;;
60060;SDS011;45933;51.336;12.612;2023-02-04T11:39:41;2.38;;;1.20;;
60060;SDS011;45933;51.336;12.612;2023-02-04T11:42:54;3.10;;;1.60;;
60060;SDS011;45933;51.336;12.612;2023-02-04T11:47:38;3.13;;;1.80;;
60060;SDS011;45933;51.336;12.612;2023-02-04T11:50:12;4.53;;;1.52;;
60060;SDS011;45933;51.336;12.612;2023-02-04T11:52:43;3.75;;;2.05;;
60060;SDS011;45933;51.336;12.612;2023-02-04T11:55:09;3.65;;;1.65;;
60060;SDS011;45933;51.336;12.612;2023-02-04T11:57:39;1.95;;;1.10;;
60060;SDS011;45933;51.336;12.612;2023-02-04T12:00:15;3.67;;;1.40;;
60060;SDS011;45933;51.336;12.612;2023-02-04T12:02:45;2.75;;;1.00;;
60060;SDS011;45933;51.336;12.612;2023-02-04T12:05:21;4.22;;;1.73;;
60060;SDS011;45933;51.336;12.612;2023-02-04T12:07:46;4.45;;;1.15;;
60060;SDS011;45933;51.336;12.612;2023-02-04T12:12:47;2.70;;;0.90;;
60060;SDS011;45933;51.336;12.612;2023-02-04T12:15:17;2.72;;;1.10;;
60060;SDS011;45933;51.336;12.612;2023-02-04T12:17:59;2.63;;;1.05;;
60060;SDS011;45933;51.336;12.612;2023-02-04T12:20:25;2.25;;;1.20;;
60060;SDS011;45933;51.336;12.612;2023-02-04T12:22:50;2.95;;;0.98;;
60060;SDS011;45933;51.336;12.612;2023-02-04T12:25:16;2.78;;;1.40;;
60060;SDS011;45933;51.336;12.612;2023-02-04T12:27:43;4.88;;;1.40;;
60060;SDS011;45933;51.336;12.612;2023-02-04T12:30:09;2.05;;;1.30;;
60060;SDS011;45933;51.336;12.612;2023-02-04T12:32:36;2.70;;;0.90;;
60060;SDS011;45933;51.336;12.612;2023-02-04T12:35:01;1.88;;;0.80;;
60060;SDS011;45933;51.336;12.612;2023-02-04T12:37:26;3.97;;;1.00;;
60060;SDS011;45933;51.336;12.612;2023-02-04T12:39:52;1.17;;;1.02;;
60060;SDS011;45933;51.336;12.612;2023-02-04T12:42:17;4.20;;;1.17;;
60060;SDS011;45933;51.336;12.612;2023-02-04T12:44:42;3.05;;;1.42;;
60060;SDS011;45933;51.336;12.612;2023-02-04T12:47:08;2.00;;;1.13;;
60060;SDS011;45933;51.336;12.612;2023-02-04T12:49:33;1.50;;;1.03;;
60060;SDS011;45933;51.336;12.612;2023-02-04T12:51:58;3.23;;;1.40;;
60060;SDS011;45933;51.336;12.612;2023-02-04T12:54:26;2.30;;;1.20;;
60060;SDS011;45933;51.336;12.612;2023-02-04T12:56:51;1.53;;;0.90;;
60060;SDS011;45933;51.336;12.612;2023-02-04T12:59:17;2.00;;;1.10;;
60060;SDS011;45933;51.336;12.612;2023-02-04T13:01:42;2.00;;;0.90;;
60060;SDS011;45933;51.336;12.612;2023-02-04T13:04:08;1.50;;;0.85;;
60060;SDS011;45933;51.336;12.612;2023-02-04T13:06:33;2.40;;;1.20;;
60060;SDS011;45933;51.336;12.612;2023-02-04T13:08:58;2.58;;;0.90;;
60060;SDS011;45933;51.336;12.612;2023-02-04T13:11:24;4.38;;;0.90;;
60060;SDS011;45933;51.336;12.612;2023-02-04T13:13:49;1.35;;;0.75;;
60060;SDS011;45933;51.336;12.612;2023-02-04T13:16:14;1.23;;;0.85;;
60060;SDS011;45933;51.336;12.612;2023-02-04T13:18:41;2.13;;;0.90;;
60060;SDS011;45933;51.336;12.612;2023-02-04T13:21:07;1.23;;;1.00;;
60060;SDS011;45933;51.336;12.612;2023-02-04T13:23:32;1.88;;;0.75;;
60060;SDS011;45933;51.336;12.612;2023-02-04T13:25:57;1.15;;;0.77;;
60060;SDS011;45933;51.336;12.612;2023-02-04T13:28:23;1.50;;;0.80;;
60060;SDS011;45933;51.336;12.612;2023-02-04T13:30:48;2.95;;;1.60;;
60060;SDS011;45933;51.336;12.612;2023-02-04T13:33:13;5.05;;;3.22;;
60060;SDS011;45933;51.336;12.612;2023-02-04T13:35:40;4.20;;;2.50;;
60060;SDS011;45933;51.336;12.612;2023-02-04T13:38:06;4.25;;;2.60;;
60060;SDS011;45933;51.336;12.612;2023-02-04T13:40:31;5.57;;;3.63;;
60060;SDS011;45933;51.336;12.612;2023-02-04T13:42:56;3.58;;;2.10;;
60060;SDS011;45933;51.336;12.612;2023-02-04T13:45:21;3.08;;;1.55;;
60060;SDS011;45933;51.336;12.612;2023-02-04T13:47:47;3.10;;;2.00;;
60060;SDS011;45933;51.336;12.612;2023-02-04T13:50:12;1.80;;;1.27;;
60060;SDS011;45933;51.336;12.612;2023-02-04T13:52:38;1.38;;;0.82;;
60060;SDS011;45933;51.336;12.612;2023-02-04T13:55:04;1.23;;;0.70;;
60060;SDS011;45933;51.336;12.612;2023-02-04T13:57:29;2.10;;;1.38;;
60060;SDS011;45933;51.336;12.612;2023-02-04T13:59:56;3.17;;;1.30;;
60060;SDS011;45933;51.336;12.612;2023-02-04T14:02:22;2.17;;;1.08;;
60060;SDS011;45933;51.336;12.612;2023-02-04T14:04:47;1.67;;;0.90;;
60060;SDS011;45933;51.336;12.612;2023-02-04T14:07:13;0.82;;;0.75;;
60060;SDS011;45933;51.336;12.612;2023-02-04T14:09:38;0.88;;;0.70;;
60060;SDS011;45933;51.336;12.612;2023-02-04T14:12:04;1.45;;;0.82;;
60060;SDS011;45933;51.336;12.612;2023-02-04T14:14:29;1.77;;;0.95;;
60060;SDS011;45933;51.336;12.612;2023-02-04T14:16:54;1.83;;;1.02;;
60060;SDS011;45933;51.336;12.612;2023-02-04T14:19:20;1.52;;;0.70;;
60060;SDS011;45933;51.336;12.612;2023-02-04T14:21:45;3.20;;;1.20;;
60060;SDS011;45933;51.336;12.612;2023-02-04T14:24:12;2.08;;;1.40;;
60060;SDS011;45933;51.336;12.612;2023-02-04T14:26:38;1.85;;;1.05;;
60060;SDS011;45933;51.336;12.612;2023-02-04T14:29:03;1.67;;;1.10;;
60060;SDS011;45933;51.336;12.612;2023-02-04T14:31:28;1.88;;;1.20;;
60060;SDS011;45933;51.336;12.612;2023-02-04T14:33:54;1.55;;;0.98;;
60060;SDS011;45933;51.336;12.612;2023-02-04T14:36:20;1.48;;;1.10;;
60060;SDS011;45933;51.336;12.612;2023-02-04T14:38:46;2.80;;;1.35;;
60060;SDS011;45933;51.336;12.612;2023-02-04T14:41:11;2.47;;;1.48;;
60060;SDS011;45933;51.336;12.612;2023-02-04T14:43:40;5.05;;;2.38;;
60060;SDS011;45933;51.336;12.612;2023-02-04T14:46:05;4.15;;;1.85;;
60060;SDS011;45933;51.336;12.612;2023-02-04T14:48:31;2.22;;;1.27;;